Time;durP1;ratioP1;P1;durP2;ratioP2;P2;SDS_P1;SDS_P2;PMS_P1;PMS_P2;Temp;Humidity;BMP_temperature;BMP_pressure;BME280_temperature;BME280_humidity;BME280_pressure;Samples;Min_cycle;Max_cycle;Signal;HPM_P1;HPM_P2
2023/12/10 00:02:14;;;;;;;20.80;5.90;;;11.80;99.90;;;;;;5135907;28;20228;-73
2023/12/10 00:04:40;;;;;;;22.85;4.63;;;11.80;99.90;;;;;;5135939;28;20023;-75
2023/12/10 00:07:06;;;;;;;22.38;5.45;;;11.80;99.90;;;;;;5117541;28;20027;-74
2023/12/10 00:09:31;;;;;;;25.23;6.40;;;11.70;99.90;;;;;;5117241;28;20047;-73
2023/12/10 00:11:57;;;;;;;20.77;4.60;;;11.70;99.90;;;;;;5135925;28;20030;-74
2023/12/10 00:14:24;;;;;;;16.23;4.95;;;11.80;99.90;;;;;;5135894;28;20023;-73
2023/12/10 00:16:50;;;;;;;24.65;6.50;;;11.80;99.90;;;;;;5135630;28;20483;-74
2023/12/10 00:19:16;;;;;;;19.63;4.38;;;11.70;99.90;;;;;;5110134;28;20045;-73
2023/12/10 00:21:42;;;;;;;16.58;4.85;;;11.70;99.90;;;;;;5129496;28;20023;-74
2023/12/10 00:24:07;;;;;;;23.63;4.72;;;11.70;99.90;;;;;;5135689;28;20556;-75
2023/12/10 00:26:33;;;;;;;19.55;5.32;;;11.80;99.90;;;;;;5137861;27;20027;-74
2023/12/10 00:28:59;;;;;;;18.05;5.47;;;11.80;99.90;;;;;;5139444;27;20034;-74
2023/12/10 00:31:25;;;;;;;18.00;4.90;;;11.80;99.90;;;;;;5117400;28;20027;-73
2023/12/10 00:33:50;;;;;;;24.55;4.97;;;11.80;99.90;;;;;;5139245;27;20542;-74
2023/12/10 00:36:18;;;;;;;21.85;5.18;;;11.70;99.90;;;;;;5139193;27;20060;-74
2023/12/10 00:38:45;;;;;;;17.77;4.97;;;11.70;99.90;;;;;;5138991;27;20020;-74
2023/12/10 00:41:11;;;;;;;22.08;5.65;;;11.70;99.90;;;;;;5117282;28;20032;-74
2023/12/10 00:43:41;;;;;;;19.25;5.15;;;11.60;99.90;;;;;;5138959;27;20034;-74
2023/12/10 00:46:07;;;;;;;14.30;4.60;;;11.50;99.90;;;;;;5120519;27;20023;-74
2023/12/10 00:48:37;;;;;;;21.92;4.90;;;11.50;99.90;;;;;;5139109;27;20061;-74
2023/12/10 00:51:03;;;;;;;18.80;5.00;;;11.40;99.90;;;;;;5120330;27;20091;-74
2023/12/10 00:53:29;;;;;;;18.20;5.82;;;11.40;99.90;;;;;;5138511;27;20289;-74
2023/12/10 00:55:54;;;;;;;11.32;4.60;;;11.30;99.90;;;;;;5120309;27;20027;-74
2023/12/10 00:58:20;;;;;;;20.08;5.30;;;11.20;99.90;;;;;;5138928;27;20033;-74
2023/12/10 01:00:46;;;;;;;18.88;4.43;;;11.10;99.90;;;;;;5120036;27;20027;-75
2023/12/10 01:03:12;;;;;;;27.92;5.13;;;10.90;99.90;;;;;;5118404;27;20798;-74
2023/12/10 01:05:37;;;;;;;24.30;5.45;;;10.80;99.90;;;;;;5120204;27;20499;-74
2023/12/10 01:08:03;;;;;;;29.90;5.68;;;10.70;99.90;;;;;;5138602;27;20027;-75
2023/12/10 01:10:29;;;;;;;20.98;5.47;;;10.60;99.90;;;;;;5138410;27;20027;-74
2023/12/10 01:12:56;;;;;;;24.23;4.88;;;10.50;99.90;;;;;;5138566;27;20035;-74
2023/12/10 01:15:29;;;;;;;21.05;5.32;;;10.40;99.90;;;;;;5138398;27;20022;-73
2023/12/10 01:18:01;;;;;;;22.58;5.30;;;10.20;99.90;;;;;;5138538;27;20467;-74
2023/12/10 01:20:30;;;;;;;14.57;4.28;;;10.10;99.90;;;;;;5137284;27;20015;-74
2023/12/10 01:22:57;;;;;;;18.08;4.93;;;10.00;99.90;;;;;;5120130;27;20023;-74
2023/12/10 01:25:26;;;;;;;19.17;4.50;;;9.90;99.90;;;;;;5119776;27;20019;-74
2023/12/10 01:27:52;;;;;;;15.77;4.93;;;9.80;99.90;;;;;;5138266;27;20029;-74
2023/12/10 01:30:24;;;;;;;18.13;4.93;;;9.80;99.90;;;;;;5138291;27;20475;-74
2023/12/10 01:32:55;;;;;;;19.58;5.32;;;9.70;99.90;;;;;;5119742;27;20127;-73
2023/12/10 01:35:21;;;;;;;;;;;9.60;99.90;;;;;;5120107;27;20082;-74
2023/12/10 01:37:47;;;;;;;30.08;6.50;;;9.60;99.90;;;;;;5137882;27;19994;-73
2023/12/10 01:40:13;;;;;;;22.58;5.10;;;9.60;99.90;;;;;;5137822;27;20070;-73
2023/12/10 01:42:40;;;;;;;20.13;6.05;;;9.50;99.90;;;;;;5137736;27;20054;-73
2023/12/10 01:45:06;;;;;;;18.55;5.22;;;9.40;99.90;;;;;;5137803;27;20027;-73
2023/12/10 01:47:35;;;;;;;26.45;6.03;;;9.40;99.90;;;;;;5119536;27;20106;-74
2023/12/10 01:50:05;;;;;;;22.42;5.88;;;9.40;99.90;;;;;;5119290;27;20019;-73
2023/12/10 01:52:32;;;;;;;24.48;5.43;;;9.40;99.90;;;;;;5137538;27;20044;-73
2023/12/10 01:54:59;;;;;;;31.77;6.13;;;9.50;99.90;;;;;;5113528;28;20047;-73
2023/12/10 01:57:27;;;;;;;19.70;5.00;;;9.50;99.90;;;;;;5115824;28;20016;-73
2023/12/10 01:59:53;;;;;;;25.02;5.60;;;9.50;99.90;;;;;;5117143;28;20083;-73
2023/12/10 02:02:20;;;;;;;24.30;5.80;;;9.70;99.90;;;;;;5115692;28;20495;-74
2023/12/10 02:04:46;;;;;;;25.20;5.78;;;9.80;99.90;;;;;;5114453;28;20024;-73
2023/12/10 02:07:12;;;;;;;30.10;6.20;;;9.70;99.90;;;;;;5116792;28;20099;-74
2023/12/10 02:09:37;;;;;;;29.95;8.05;;;9.80;99.90;;;;;;5116422;28;20027;-75
2023/12/10 02:12:04;;;;;;;24.90;6.18;;;9.70;99.90;;;;;;5116796;28;20051;-74
2023/12/10 02:14:29;;;;;;;25.25;6.18;;;9.60;99.90;;;;;;5115539;28;20030;-74
2023/12/10 02:16:55;;;;;;;19.30;6.30;;;9.60;99.90;;;;;;5115299;28;20019;-74
2023/12/10 02:19:21;;;;;;;20.02;5.60;;;9.60;99.90;;;;;;5109517;28;20027;-74
2023/12/10 02:21:49;;;;;;;20.55;6.20;;;9.60;99.90;;;;;;5115277;28;20050;-75
2023/12/10 02:24:22;;;;;;;19.00;4.50;;;9.50;99.90;;;;;;5112512;28;20077;-74
2023/12/10 02:26:48;;;;;;;22.42;5.53;;;9.40;99.90;;;;;;5115022;28;20024;-74
2023/12/10 02:29:13;;;;;;;21.92;5.75;;;9.50;99.90;;;;;;5116575;28;20161;-75
2023/12/10 02:31:39;;;;;;;27.17;5.95;;;9.50;99.90;;;;;;5116334;28;20032;-75
2023/12/10 02:34:05;;;;;;;24.73;6.20;;;9.40;99.90;;;;;;5116411;28;20035;-74
2023/12/10 02:36:31;;;;;;;23.00;5.47;;;9.40;99.90;;;;;;5114913;28;20399;-74
2023/12/10 02:38:57;;;;;;;15.35;5.35;;;9.30;99.90;;;;;;5112411;28;20049;-74
2023/12/10 02:41:22;;;;;;;19.60;6.85;;;9.20;99.90;;;;;;5116315;28;20103;-74
2023/12/10 02:43:48;;;;;;;22.25;5.55;;;9.10;99.90;;;;;;5116354;28;20024;-75
2023/12/10 02:46:14;;;;;;;17.25;5.97;;;9.00;99.90;;;;;;5116368;28;20019;-73
2023/12/10 02:48:39;;;;;;;25.70;6.18;;;9.00;99.90;;;;;;5111869;28;20059;-75
2023/12/10 02:51:05;;;;;;;14.48;5.13;;;9.00;99.90;;;;;;5115962;28;20097;-74
2023/12/10 02:53:31;;;;;;;36.70;6.35;;;9.00;99.90;;;;;;5111934;28;20065;-75
2023/12/10 02:55:57;;;;;;;27.45;5.82;;;9.20;99.90;;;;;;5116062;28;20027;-74
2023/12/10 02:58:23;;;;;;;21.60;5.13;;;9.20;99.90;;;;;;5116267;28;20019;-74
2023/12/10 03:00:48;;;;;;;23.83;5.70;;;9.20;99.90;;;;;;5115849;28;20034;-74
2023/12/10 03:03:14;;;;;;;32.20;6.57;;;9.00;99.90;;;;;;5116147;28;20093;-74
2023/12/10 03:05:40;;;;;;;28.60;6.53;;;8.90;99.90;;;;;;5116032;28;20031;-74
2023/12/10 03:08:05;;;;;;;19.35;5.18;;;9.00;99.90;;;;;;5115780;28;20028;-73
2023/12/10 03:10:31;;;;;;;22.35;5.55;;;9.00;99.90;;;;;;5114489;28;20505;-74
2023/12/10 03:12:57;;;;;;;17.77;5.38;;;8.90;99.90;;;;;;5115925;28;20059;-74
2023/12/10 03:15:22;;;;;;;26.60;6.57;;;8.80;99.90;;;;;;5115625;28;20026;-74
2023/12/10 03:17:48;;;;;;;31.75;6.13;;;8.90;99.90;;;;;;5112352;28;20042;-74
2023/12/10 03:20:14;;;;;;;32.53;5.35;;;8.90;99.90;;;;;;5108530;28;20081;-74
2023/12/10 03:22:39;;;;;;;27.60;5.50;;;8.90;99.90;;;;;;5112016;28;20491;-74
2023/12/10 03:25:05;;;;;;;24.83;5.18;;;8.90;99.90;;;;;;5115529;28;20027;-74
2023/12/10 03:27:31;;;;;;;23.08;5.47;;;8.90;99.90;;;;;;5111795;28;20024;-74
2023/12/10 03:29:57;;;;;;;33.00;6.03;;;8.90;99.90;;;;;;5114354;28;20625;-75
2023/12/10 03:32:23;;;;;;;26.92;6.53;;;8.90;99.90;;;;;;5109926;28;20020;-74
2023/12/10 03:34:49;;;;;;;31.30;6.15;;;8.90;99.90;;;;;;5124217;28;20031;-74
2023/12/10 03:37:14;;;;;;;19.88;5.20;;;8.80;99.90;;;;;;5115082;28;20039;-74
2023/12/10 03:39:40;;;;;;;30.67;5.45;;;8.80;99.90;;;;;;5113143;28;20031;-74
2023/12/10 03:42:05;;;;;;;24.38;4.90;;;8.70;99.90;;;;;;5115374;28;20047;-74
2023/12/10 03:44:32;;;;;;;18.23;5.55;;;8.80;99.90;;;;;;5115772;28;20020;-74
2023/12/10 03:47:02;;;;;;;25.40;5.90;;;8.80;99.90;;;;;;5115453;28;20115;-74
2023/12/10 03:49:28;;;;;;;33.40;5.67;;;9.00;99.90;;;;;;5115469;28;20062;-75
2023/12/10 03:51:56;;;;;;;25.27;7.47;;;9.10;99.90;;;;;;5113796;28;20038;-74
2023/12/10 03:54:22;;;;;;;27.23;5.72;;;9.00;99.90;;;;;;5129471;28;20466;-74
2023/12/10 03:56:47;;;;;;;19.60;5.65;;;9.00;99.90;;;;;;5135853;28;20058;-74
2023/12/10 03:59:13;;;;;;;21.90;5.03;;;9.10;99.90;;;;;;5136247;27;20026;-74
2023/12/10 04:01:42;;;;;;;18.38;5.55;;;8.90;99.90;;;;;;5139546;27;20031;-74
2023/12/10 04:04:11;;;;;;;34.00;6.50;;;8.90;99.90;;;;;;5120861;27;20019;-74
2023/12/10 04:06:41;;;;;;;30.60;6.68;;;8.80;99.90;;;;;;5119276;27;20023;-74
2023/12/10 04:09:08;;;;;;;23.35;5.68;;;8.80;99.90;;;;;;5118717;27;20088;-74
2023/12/10 04:11:34;;;;;;;22.00;5.78;;;8.80;99.90;;;;;;5139678;27;20054;-75
2023/12/10 04:13:59;;;;;;;32.30;6.38;;;8.70;99.90;;;;;;5139688;27;20019;-73
2023/12/10 04:16:29;;;;;;;28.58;5.43;;;8.60;99.90;;;;;;5139721;27;20449;-74
2023/12/10 04:18:55;;;;;;;27.60;6.57;;;8.60;99.90;;;;;;5134743;27;20111;-74
2023/12/10 04:21:22;;;;;;;21.67;5.78;;;8.60;99.90;;;;;;5138291;27;20062;-73
2023/12/10 04:23:48;;;;;;;20.42;5.72;;;8.60;99.90;;;;;;5139542;27;20106;-74
2023/12/10 04:26:15;;;;;;;34.65;6.22;;;8.60;99.90;;;;;;5139490;27;20019;-73
2023/12/10 04:28:41;;;;;;;27.30;6.05;;;8.60;99.90;;;;;;5139474;27;20119;-74
2023/12/10 04:31:07;;;;;;;32.20;6.20;;;8.60;99.90;;;;;;5139400;27;20062;-74
2023/12/10 04:33:33;;;;;;;33.40;6.47;;;8.60;99.90;;;;;;5120757;27;20026;-74
2023/12/10 04:35:59;;;;;;;18.52;5.68;;;8.60;99.90;;;;;;5120693;27;20601;-74
2023/12/10 04:38:25;;;;;;;30.70;6.68;;;8.60;99.90;;;;;;5139023;27;20098;-74
2023/12/10 04:40:50;;;;;;;26.35;6.47;;;8.70;99.90;;;;;;5139090;27;20119;-75
2023/12/10 04:43:16;;;;;;;34.75;6.88;;;8.90;99.90;;;;;;5139421;27;20023;-74
2023/12/10 04:45:41;;;;;;;25.70;6.55;;;8.90;99.90;;;;;;5120334;27;20026;-75
2023/12/10 04:48:07;;;;;;;27.50;6.80;;;9.00;99.90;;;;;;5139195;27;20027;-74
2023/12/10 04:50:33;;;;;;;22.55;5.97;;;9.00;99.90;;;;;;5138962;27;20031;-74
2023/12/10 04:52:58;;;;;;;17.17;4.88;;;9.10;99.90;;;;;;5119502;27;20137;-74
2023/12/10 04:55:24;;;;;;;15.88;5.65;;;9.20;99.90;;;;;;5138973;27;20533;-74
2023/12/10 04:57:50;;;;;;;24.42;5.50;;;9.30;99.90;;;;;;5120458;27;20502;-75
2023/12/10 05:00:16;;;;;;;27.25;5.68;;;9.30;99.90;;;;;;5136928;27;20031;-74
2023/12/10 05:02:41;;;;;;;19.20;4.60;;;9.40;99.90;;;;;;5118102;27;20378;-74
2023/12/10 05:05:08;;;;;;;25.50;5.82;;;9.50;99.90;;;;;;5138275;27;20023;-74
2023/12/10 05:07:37;;;;;;;27.95;5.18;;;9.60;99.90;;;;;;5138112;27;20072;-74
2023/12/10 05:10:04;;;;;;;33.22;6.47;;;9.60;99.90;;;;;;5137776;27;20094;-74
2023/12/10 05:12:29;;;;;;;30.40;6.15;;;9.60;99.90;;;;;;5137800;27;20027;-74
2023/12/10 05:14:55;;;;;;;17.90;5.50;;;9.70;99.90;;;;;;5138659;27;20026;-74
2023/12/10 05:17:21;;;;;;;19.15;4.93;;;9.70;99.90;;;;;;5119814;27;20062;-74
2023/12/10 05:19:47;;;;;;;17.65;6.18;;;9.70;99.90;;;;;;5135639;27;20067;-74
2023/12/10 05:22:13;;;;;;;15.82;6.10;;;9.60;99.90;;;;;;5138185;27;20381;-74
2023/12/10 05:24:40;;;;;;;26.25;7.38;;;9.50;99.90;;;;;;5116602;28;20023;-74
2023/12/10 05:27:06;;;;;;;18.98;7.30;;;9.30;99.90;;;;;;5134095;27;20072;-74
2023/12/10 05:29:31;;;;;;;15.43;6.30;;;9.20;99.90;;;;;;5138368;27;20023;-74
2023/12/10 05:31:57;;;;;;;21.42;7.38;;;9.20;99.90;;;;;;5138201;27;20106;-74
2023/12/10 05:34:22;;;;;;;20.90;6.25;;;9.20;99.90;;;;;;5138363;27;20513;-75
2023/12/10 05:36:48;;;;;;;18.92;6.65;;;9.20;99.90;;;;;;5137871;27;20026;-75
2023/12/10 05:39:14;;;;;;;21.67;6.78;;;9.20;99.90;;;;;;5137983;27;20062;-74
2023/12/10 05:41:41;;;;;;;18.17;6.47;;;9.20;99.90;;;;;;5137772;27;20042;-75
2023/12/10 05:44:06;;;;;;;14.60;5.68;;;9.20;99.90;;;;;;5115977;28;20020;-75
2023/12/10 05:46:32;;;;;;;22.08;6.22;;;9.20;99.90;;;;;;5133424;27;20514;-75
2023/12/10 05:48:58;;;;;;;15.00;6.15;;;9.30;99.90;;;;;;5116067;28;20077;-75
2023/12/10 05:51:23;;;;;;;15.07;6.07;;;9.30;99.90;;;;;;5133177;27;20027;-75
2023/12/10 05:53:51;;;;;;;25.90;7.18;;;9.30;99.90;;;;;;5112176;28;20079;-75
2023/12/10 05:56:16;;;;;;;19.08;7.40;;;9.30;99.90;;;;;;5111147;28;20557;-75
2023/12/10 05:58:42;;;;;;;19.05;7.10;;;9.30;99.90;;;;;;5112792;28;20037;-75
2023/12/10 06:01:08;;;;;;;15.55;6.18;;;9.30;99.90;;;;;;5109084;28;20660;-75
2023/12/10 06:03:33;;;;;;;21.95;7.63;;;9.30;99.90;;;;;;5114779;28;20020;-75
2023/12/10 06:05:59;;;;;;;22.20;6.55;;;9.40;99.90;;;;;;5115594;28;20494;-75
2023/12/10 06:08:25;;;;;;;19.23;6.97;;;9.30;99.90;;;;;;5111224;28;20437;-75
2023/12/10 06:10:51;;;;;;;22.25;6.40;;;9.40;99.90;;;;;;5112749;28;20061;-75
2023/12/10 06:13:16;;;;;;;17.05;6.82;;;9.30;99.90;;;;;;5117019;28;20064;-75
2023/12/10 06:15:43;;;;;;;15.15;7.35;;;9.30;99.90;;;;;;5115418;28;20031;-75
2023/12/10 06:18:09;;;;;;;21.85;6.78;;;9.30;99.90;;;;;;5116810;28;20036;-75
2023/12/10 06:20:35;;;;;;;17.63;5.93;;;9.30;99.90;;;;;;5110079;28;20049;-75
2023/12/10 06:23:02;;;;;;;22.05;6.38;;;9.30;99.90;;;;;;5115738;28;20073;-75
2023/12/10 06:25:27;;;;;;;11.32;5.90;;;9.30;99.90;;;;;;5116377;28;20019;-76
2023/12/10 06:27:54;;;;;;;18.85;6.88;;;9.30;99.90;;;;;;5111934;28;20114;-75
2023/12/10 06:30:20;;;;;;;17.80;6.93;;;9.20;99.90;;;;;;5124788;27;20028;-74
2023/12/10 06:32:45;;;;;;;16.20;7.18;;;9.20;99.90;;;;;;5114891;28;20035;-75
2023/12/10 06:35:11;;;;;;;17.80;7.55;;;9.20;99.90;;;;;;5116620;28;20058;-75
2023/12/10 06:37:37;;;;;;;16.98;7.13;;;9.10;99.90;;;;;;5107339;28;20024;-75
2023/12/10 06:40:05;;;;;;;15.43;7.22;;;9.10;99.90;;;;;;5112070;28;20047;-74
2023/12/10 06:42:32;;;;;;;21.50;7.82;;;9.10;99.90;;;;;;5111744;28;20028;-75
2023/12/10 06:44:57;;;;;;;12.90;6.45;;;9.10;99.90;;;;;;5109657;28;20034;-75
2023/12/10 06:47:23;;;;;;;20.00;6.68;;;9.00;99.90;;;;;;5130966;27;20019;-75
2023/12/10 06:49:49;;;;;;;15.90;7.63;;;9.00;99.90;;;;;;5116211;28;20030;-75
2023/12/10 06:52:15;;;;;;;23.42;9.35;;;8.90;99.90;;;;;;5106975;28;20042;-75
2023/12/10 06:54:41;;;;;;;21.45;6.95;;;8.80;99.90;;;;;;5129170;27;20478;-75
2023/12/10 06:57:07;;;;;;;19.15;8.18;;;8.70;99.90;;;;;;5114880;28;20038;-75
2023/12/10 06:59:32;;;;;;;15.57;7.47;;;8.60;99.90;;;;;;5114656;27;20491;-75
2023/12/10 07:01:58;;;;;;;21.02;7.45;;;8.50;99.90;;;;;;5136747;27;20030;-74
2023/12/10 07:04:24;;;;;;;18.65;6.38;;;8.30;99.90;;;;;;5136546;27;20100;-75
2023/12/10 07:06:49;;;;;;;12.88;5.90;;;8.20;99.90;;;;;;5136546;27;20111;-75
2023/12/10 07:09:15;;;;;;;22.00;7.60;;;8.10;99.90;;;;;;5117492;27;20038;-74
2023/12/10 07:11:41;;;;;;;23.92;8.13;;;8.10;99.90;;;;;;5114736;28;20034;-75
2023/12/10 07:14:06;;;;;;;19.83;8.80;;;8.00;99.90;;;;;;5132885;27;20537;-74
2023/12/10 07:16:32;;;;;;;25.63;8.88;;;7.90;99.90;;;;;;5136384;28;20493;-74
2023/12/10 07:18:58;;;;;;;18.25;7.93;;;7.80;99.90;;;;;;5134820;28;20534;-74
2023/12/10 07:21:23;;;;;;;24.27;6.93;;;7.70;99.90;;;;;;5136216;28;20531;-74
2023/12/10 07:23:49;;;;;;;19.55;6.57;;;7.70;99.90;;;;;;5135980;28;20044;-74
2023/12/10 07:29:00;;;;;;;17.33;6.20;;;7.70;99.90;;;;;;5071733;28;20039;-74
2023/12/10 07:31:26;;;;;;;20.98;5.68;;;7.70;99.90;;;;;;5075900;28;20123;-74
2023/12/10 07:33:52;;;;;;;19.73;5.28;;;7.60;99.90;;;;;;5076293;28;20179;-74
2023/12/10 07:36:17;;;;;;;16.88;5.75;;;7.60;99.90;;;;;;5079829;28;20081;-74
2023/12/10 07:38:43;;;;;;;22.60;5.88;;;7.60;99.90;;;;;;5097128;28;20188;-74
2023/12/10 07:41:09;;;;;;;19.52;5.40;;;7.60;99.90;;;;;;5097377;28;20032;-74
2023/12/10 07:43:34;;;;;;;19.17;5.18;;;7.50;99.90;;;;;;5097189;28;20082;-74
2023/12/10 07:46:00;;;;;;;25.52;7.38;;;7.60;99.90;;;;;;5097293;28;20056;-73
2023/12/10 07:48:26;;;;;;;20.15;8.25;;;7.60;99.90;;;;;;5080146;28;20032;-74
2023/12/10 07:50:52;;;;;;;24.20;7.80;;;7.70;99.90;;;;;;5097310;28;20068;-74
2023/12/10 07:53:18;;;;;;;23.23;9.10;;;7.80;99.90;;;;;;5096726;28;20048;-74
2023/12/10 07:55:44;;;;;;;44.83;10.65;;;7.90;99.90;;;;;;5097192;28;20040;-74
2023/12/10 07:58:09;;;;;;;57.55;12.07;;;7.80;99.90;;;;;;5079969;28;20388;-74
2023/12/10 08:00:35;;;;;;;27.10;10.25;;;7.90;99.90;;;;;;5129350;27;20047;-74
2023/12/10 08:03:02;;;;;;;13.32;9.00;;;7.90;99.90;;;;;;5118350;28;20028;-74
2023/12/10 08:05:28;;;;;;;14.73;9.68;;;7.90;99.90;;;;;;5126839;27;20035;-74
2023/12/10 08:07:56;;;;;;;14.32;9.77;;;7.90;99.90;;;;;;5139998;27;20019;-74
2023/12/10 08:10:22;;;;;;;13.65;8.38;;;7.90;99.90;;;;;;5140138;27;20072;-74
2023/12/10 08:12:48;;;;;;;17.20;8.65;;;7.90;99.90;;;;;;5140091;27;20031;-74
2023/12/10 08:15:14;;;;;;;13.07;7.85;;;7.90;99.90;;;;;;5140001;27;20418;-74
2023/12/10 08:17:39;;;;;;;20.63;9.50;;;7.90;99.90;;;;;;5121448;27;20034;-74
2023/12/10 08:20:06;;;;;;;22.70;9.60;;;8.00;99.90;;;;;;5133237;27;20058;-74
2023/12/10 08:22:31;;;;;;;23.08;9.95;;;8.10;99.90;;;;;;5138521;27;20072;-74
2023/12/10 08:24:57;;;;;;;26.80;11.52;;;8.20;99.90;;;;;;5139731;27;20031;-74
2023/12/10 08:27:23;;;;;;;20.23;11.93;;;8.30;99.90;;;;;;5139820;27;20031;-74
2023/12/10 08:29:48;;;;;;;20.50;11.85;;;8.40;99.90;;;;;;5139838;27;20499;-75
2023/12/10 08:32:14;;;;;;;30.42;13.48;;;8.40;99.90;;;;;;5121053;27;20076;-74
2023/12/10 08:34:40;;;;;;;30.15;16.08;;;8.50;99.90;;;;;;5121154;27;20027;-74
2023/12/10 08:37:06;;;;;;;26.02;13.30;;;8.70;99.90;;;;;;5139421;27;20467;-75
2023/12/10 08:39:32;;;;;;;25.67;14.60;;;8.90;99.90;;;;;;5139490;27;20482;-74
2023/12/10 08:41:58;;;;;;;26.83;15.55;;;8.90;99.90;;;;;;5120801;27;20120;-75
2023/12/10 08:44:25;;;;;;;28.25;13.68;;;9.10;99.90;;;;;;5139214;27;20072;-74
2023/12/10 08:46:51;;;;;;;26.20;12.52;;;9.10;99.90;;;;;;5138300;27;20016;-74
2023/12/10 08:49:17;;;;;;;24.15;12.40;;;9.30;99.90;;;;;;5139443;27;20023;-75
2023/12/10 08:51:43;;;;;;;18.48;10.93;;;9.30;99.90;;;;;;5120703;27;20456;-74
2023/12/10 08:54:09;;;;;;;21.85;11.18;;;9.30;99.90;;;;;;5120482;27;20043;-75
2023/12/10 08:56:34;;;;;;;19.05;8.90;;;9.40;99.90;;;;;;5139106;27;20031;-75
2023/12/10 08:59:00;;;;;;;19.33;10.35;;;9.40;99.90;;;;;;5120714;27;20027;-75
2023/12/10 09:01:25;;;;;;;21.05;10.02;;;9.40;99.90;;;;;;5138983;27;20027;-75
2023/12/10 09:03:51;;;;;;;24.25;10.35;;;9.30;99.90;;;;;;5120617;27;20023;-75
2023/12/10 09:06:17;;;;;;;19.67;9.55;;;9.40;99.90;;;;;;5138897;27;20037;-75
2023/12/10 09:08:42;;;;;;;19.27;9.57;;;9.30;99.90;;;;;;5120271;27;20031;-75
2023/12/10 09:11:08;;;;;;;17.42;8.57;;;9.40;99.90;;;;;;5138903;27;20495;-76
2023/12/10 09:13:35;;;;;;;14.05;9.13;;;9.50;99.90;;;;;;5120561;27;20027;-76
2023/12/10 09:16:01;;;;;;;13.75;8.13;;;9.50;99.90;;;;;;5120199;27;20054;-76
2023/12/10 09:18:27;;;;;;;13.43;7.72;;;9.60;99.90;;;;;;5138749;27;20059;-75
2023/12/10 09:20:54;;;;;;;22.77;8.93;;;9.70;99.90;;;;;;5131782;27;20026;-76
2023/12/10 09:23:20;;;;;;;13.88;7.90;;;9.80;99.90;;;;;;5138389;27;20038;-76
2023/12/10 09:25:46;;;;;;;20.38;7.78;;;9.80;99.90;;;;;;5119998;27;20022;-76
2023/12/10 09:28:11;;;;;;;15.30;7.75;;;9.90;99.90;;;;;;5138546;27;20020;-76
2023/12/10 09:30:37;;;;;;;18.27;7.53;;;9.90;99.90;;;;;;5138303;27;20027;-75
2023/12/10 09:33:05;;;;;;;15.98;6.88;;;10.00;99.90;;;;;;5119676;27;20023;-76
2023/12/10 09:35:30;;;;;;;16.35;6.82;;;10.10;99.90;;;;;;5138324;27;20136;-75
2023/12/10 09:37:56;;;;;;;18.23;7.93;;;10.00;99.90;;;;;;5138133;27;20101;-76
2023/12/10 09:40:22;;;;;;;17.30;6.90;;;10.10;99.90;;;;;;5138263;27;20439;-76
2023/12/10 09:42:47;;;;;;;11.80;5.63;;;10.20;99.90;;;;;;5119750;27;20123;-75
2023/12/10 09:45:13;;;;;;;17.73;6.50;;;10.20;99.90;;;;;;5138209;27;20035;-76
2023/12/10 09:47:41;;;;;;;17.70;6.70;;;10.20;99.90;;;;;;5138203;27;20034;-76
2023/12/10 09:50:07;;;;;;;11.80;6.47;;;10.20;99.90;;;;;;5119774;27;20019;-76
2023/12/10 09:52:32;;;;;;;17.80;6.35;;;10.20;99.90;;;;;;5137958;27;20023;-75
2023/12/10 09:54:58;;;;;;;13.07;6.15;;;10.30;99.90;;;;;;5137584;27;20074;-75
2023/12/10 09:57:27;;;;;;;17.60;6.63;;;10.40;99.90;;;;;;5137802;27;20035;-75
2023/12/10 09:59:54;;;;;;;19.13;7.05;;;10.40;99.90;;;;;;5137960;27;20050;-76
2023/12/10 10:02:20;;;;;;;21.58;6.25;;;10.50;99.90;;;;;;5137797;27;20513;-75
2023/12/10 10:04:46;;;;;;;21.45;6.30;;;10.50;99.90;;;;;;5137772;27;20015;-75
2023/12/10 10:07:13;;;;;;;17.13;5.78;;;10.60;99.90;;;;;;5119164;27;20034;-74
2023/12/10 10:09:39;;;;;;;17.42;6.72;;;10.60;99.90;;;;;;5137351;27;20162;-75
2023/12/10 10:12:07;;;;;;;10.65;5.13;;;10.60;99.90;;;;;;5119250;27;20042;-76
2023/12/10 10:14:33;;;;;;;21.58;5.78;;;10.60;99.90;;;;;;5137459;27;20015;-76
2023/12/10 10:16:59;;;;;;;23.58;7.82;;;10.70;99.90;;;;;;5119092;27;20025;-75
2023/12/10 10:19:25;;;;;;;16.10;5.72;;;10.70;99.90;;;;;;5118710;27;20019;-76
2023/12/10 10:21:51;;;;;;;20.23;6.05;;;10.80;99.90;;;;;;5137308;27;20037;-76
2023/12/10 10:24:17;;;;;;;11.57;4.80;;;10.90;99.90;;;;;;5137112;27;20095;-76
2023/12/10 10:26:43;;;;;;;22.75;6.10;;;11.00;99.90;;;;;;5137413;27;20106;-77
2023/12/10 10:29:09;;;;;;;23.50;6.53;;;11.00;99.90;;;;;;5118757;27;20061;-76
2023/12/10 10:31:34;;;;;;;17.35;5.40;;;11.10;99.90;;;;;;5137275;27;20031;-75
2023/12/10 10:34:05;;;;;;;24.83;5.65;;;11.30;99.90;;;;;;5137182;27;20058;-76
2023/12/10 10:36:32;;;;;;;23.73;5.13;;;11.40;99.90;;;;;;5137116;27;20141;-76
2023/12/10 10:38:58;;;;;;;20.45;4.90;;;11.50;99.90;;;;;;5118353;27;20067;-76
2023/12/10 10:41:25;;;;;;;15.10;4.45;;;11.50;99.90;;;;;;5118595;27;20513;-76
2023/12/10 10:43:51;;;;;;;22.17;4.80;;;11.60;99.90;;;;;;5118486;27;20042;-76
2023/12/10 10:46:21;;;;;;;21.92;5.75;;;11.60;99.90;;;;;;5137207;27;20015;-76
2023/12/10 10:48:53;;;;;;;16.35;4.75;;;11.60;99.90;;;;;;5137184;27;20031;-76
2023/12/10 10:51:25;;;;;;;22.05;5.88;;;11.60;99.90;;;;;;5136906;27;20027;-76
2023/12/10 10:53:56;;;;;;;20.13;5.07;;;11.60;99.90;;;;;;5136561;27;20055;-76
2023/12/10 10:56:23;;;;;;;19.40;4.90;;;11.60;99.90;;;;;;5118432;27;20049;-76
2023/12/10 10:58:49;;;;;;;15.30;5.30;;;11.70;99.90;;;;;;5118373;27;20026;-76
2023/12/10 11:01:41;;;;;;;14.73;5.43;;;11.70;99.90;;;;;;5136809;27;20023;-76
2023/12/10 11:04:11;;;;;;;31.42;6.47;;;11.80;99.90;;;;;;5137141;27;20016;-76
2023/12/10 11:06:36;;;;;;;12.82;5.20;;;11.90;99.90;;;;;;5136513;27;20042;-77
2023/12/10 11:09:02;;;;;;;15.55;5.07;;;12.00;99.90;;;;;;5136084;27;20574;-76
2023/12/10 11:11:28;;;;;;;22.77;5.57;;;12.10;99.90;;;;;;5136480;27;20061;-76
2023/12/10 11:13:54;;;;;;;15.57;4.60;;;12.20;99.90;;;;;;5118142;27;20023;-76
2023/12/10 11:16:23;;;;;;;28.35;5.75;;;12.40;99.90;;;;;;5117867;28;20498;-76
2023/12/10 11:18:58;;;;;;;17.13;5.65;;;12.60;99.90;;;;;;5114937;28;20020;-76
2023/12/10 11:21:25;;;;;;;21.17;5.72;;;12.80;99.90;;;;;;5134180;28;20103;-76
2023/12/10 11:23:51;;;;;;;16.33;4.65;;;13.00;99.90;;;;;;5117891;28;20030;-76
2023/12/10 11:26:17;;;;;;;18.80;4.53;;;13.10;99.90;;;;;;5136480;28;20082;-76
2023/12/10 11:28:42;;;;;;;17.67;4.93;;;13.20;99.90;;;;;;5136561;28;20503;-76
2023/12/10 11:31:08;;;;;;;18.75;4.50;;;13.50;99.90;;;;;;5136375;28;20060;-75
2023/12/10 11:33:40;;;;;;;13.88;4.90;;;13.60;99.90;;;;;;5117949;28;20566;-76
2023/12/10 11:36:06;;;;;;;29.20;6.32;;;13.80;99.90;;;;;;5117943;28;20029;-76
2023/12/10 11:38:32;;;;;;;17.52;4.60;;;13.90;99.90;;;;;;5136154;28;20494;-76
2023/12/10 11:40:58;;;;;;;19.98;4.32;;;14.00;99.90;;;;;;5136262;28;20035;-76
2023/12/10 11:43:25;;;;;;;18.65;4.18;;;14.10;99.90;;;;;;5136404;28;20467;-76
2023/12/10 11:45:52;;;;;;;20.50;5.38;;;14.20;99.90;;;;;;5136528;28;20075;-76
2023/12/10 11:48:19;;;;;;;24.40;6.10;;;14.20;99.90;;;;;;5136711;28;20023;-76
2023/12/10 11:50:46;;;;;;;12.18;4.18;;;14.20;99.90;;;;;;5136483;28;20113;-76
2023/12/10 11:53:11;;;;;;;16.35;4.20;;;14.30;99.90;;;;;;5135840;28;20383;-76
2023/12/10 11:55:37;;;;;;;14.18;4.43;;;14.40;99.90;;;;;;5136278;28;20058;-76
2023/12/10 11:58:03;;;;;;;12.60;3.97;;;14.40;99.90;;;;;;5118076;28;20077;-76
2023/12/10 12:00:28;;;;;;;16.92;4.45;;;14.50;99.90;;;;;;5136148;28;20038;-76
2023/12/10 12:02:54;;;;;;;19.50;4.72;;;14.40;99.90;;;;;;5136262;28;20494;-75
2023/12/10 12:05:20;;;;;;;17.02;4.07;;;14.30;99.90;;;;;;5136126;28;20130;-76
2023/12/10 12:07:49;;;;;;;15.35;4.07;;;14.40;99.90;;;;;;5135800;28;20016;-75
2023/12/10 12:10:15;;;;;;;15.32;4.60;;;14.30;99.90;;;;;;5117632;28;20080;-75
2023/12/10 12:12:46;;;;;;;18.17;4.10;;;14.30;99.90;;;;;;5136188;28;20022;-76
2023/12/10 12:15:12;;;;;;;;;;;14.30;99.90;;;;;;5136543;28;20023;-76
2023/12/10 12:17:38;;;;;;;18.70;4.60;;;14.40;99.90;;;;;;5136094;28;19965;-76
2023/12/10 12:20:25;;;;;;;14.98;4.85;;;14.40;99.90;;;;;;5129038;28;20027;-76
2023/12/10 12:22:51;;;;;;;18.25;4.47;;;14.40;99.90;;;;;;5120917;27;20403;-76
2023/12/10 12:25:17;;;;;;;17.85;4.20;;;14.50;99.90;;;;;;5139837;27;20023;-75
2023/12/10 12:27:43;;;;;;;22.98;5.57;;;14.60;99.90;;;;;;5139788;27;20027;-76
2023/12/10 12:30:09;;;;;;;11.35;3.72;;;14.70;99.90;;;;;;5139641;27;20015;-76
2023/12/10 12:32:35;;;;;;;15.50;4.63;;;14.80;99.90;;;;;;5120393;27;20073;-76
2023/12/10 12:35:01;;;;;;;15.70;4.97;;;15.10;99.90;;;;;;5121010;27;20022;-76
2023/12/10 12:37:27;;;;;;;17.52;4.03;;;15.20;99.90;;;;;;5120830;27;20462;-76
2023/12/10 12:39:54;;;;;;;14.55;5.30;;;15.40;99.90;;;;;;5139258;27;20046;-76
2023/12/10 12:42:20;;;;;;;16.98;4.85;;;15.50;99.90;;;;;;5139328;27;20031;-76